EXS43CE EGPF-LEMG
Flight info
| Callsign | EXS43CE |
|---|---|
| Flight time | 3h 8m |
| Altitude | 24000 |
| Route | NORBO L186 TRN P600 BLACA/N0435F340 DCT NELBO DCT NIMAT DCT TUVEN/M078F360 DCT LASNO T9 BEGAS/N0456F360 DCT PINEK/N0444F350 DCT DIVUT DCT ABETO DCT LASIB M744 ROSAL DCT SANTA DCT SVL |
| Aircraft | B738/M-SDE2E3FGHIRWXY/LB1 |
Departure
| Time | 2026-05-04 17:44 |
|---|---|
| Airport | Glasgow Airport (EGPF) |
Arrival
| Time | 2026-05-04 20:53 |
|---|---|
| Airport | Málaga-Costa del Sol Airport (LEMG) |
| Time | Latitude | Longitude | Altitude | Speed | Heading |
|---|---|---|---|---|---|
| 2026-05-04 17:13 | 55.86654 | -4.43447 | 30 ft | 0 kts | 97° |
| 2026-05-04 17:34 | 55.86653 | -4.43545 | 30 ft | 4 kts | 68° |
| 2026-05-04 17:34 | 55.86641 | -4.43575 | 29 ft | 4 kts | 2° |
| 2026-05-04 17:35 | 55.86631 | -4.43574 | 30 ft | 0 kts | 344° |
| 2026-05-04 17:38 | 55.86637 | -4.43576 | 30 ft | 2 kts | 344° |
| 2026-05-04 17:38 | 55.86668 | -4.43592 | 29 ft | 6 kts | 343° |
| 2026-05-04 17:38 | 55.86708 | -4.43614 | 30 ft | 6 kts | 343° |
| 2026-05-04 17:39 | 55.86767 | -4.43527 | 29 ft | 10 kts | 73° |
| 2026-05-04 17:39 | 55.86792 | -4.43379 | 29 ft | 14 kts | 74° |
| 2026-05-04 17:39 | 55.86818 | -4.43217 | 30 ft | 13 kts | 73° |
| 2026-05-04 17:40 | 55.86843 | -4.43063 | 30 ft | 13 kts | 74° |
| 2026-05-04 17:40 | 55.86893 | -4.42944 | 30 ft | 12 kts | 27° |
| 2026-05-04 17:40 | 55.86975 | -4.42871 | 30 ft | 15 kts | 27° |
| 2026-05-04 17:40 | 55.87087 | -4.42794 | 30 ft | 19 kts | 20° |
| 2026-05-04 17:41 | 55.87212 | -4.42709 | 30 ft | 19 kts | 22° |
| 2026-05-04 17:41 | 55.87334 | -4.42631 | 30 ft | 18 kts | 18° |
| 2026-05-04 17:41 | 55.87437 | -4.42508 | 30 ft | 18 kts | 49° |
| 2026-05-04 17:41 | 55.87519 | -4.42350 | 30 ft | 17 kts | 46° |
| 2026-05-04 17:42 | 55.87599 | -4.42200 | 30 ft | 16 kts | 46° |
| 2026-05-04 17:42 | 55.87677 | -4.42055 | 30 ft | 16 kts | 46° |
| 2026-05-04 17:42 | 55.87752 | -4.41916 | 30 ft | 15 kts | 43° |
| 2026-05-04 17:42 | 55.87846 | -4.41851 | 30 ft | 15 kts | 0° |
| 2026-05-04 17:43 | 55.87920 | -4.41938 | 30 ft | 14 kts | 276° |
| 2026-05-04 17:43 | 55.87868 | -4.42072 | 30 ft | 13 kts | 227° |
| 2026-05-04 17:43 | 55.87783 | -4.42232 | 30 ft | 34 kts | 226° |
| 2026-05-04 17:43 | 55.87461 | -4.42831 | 30 ft | 99 kts | 227° |
| 2026-05-04 17:44 | 55.86855 | -4.43969 | 31 ft | 152 kts | 228° |
| 2026-05-04 17:44 | 55.86051 | -4.45434 | 375 ft | 168 kts | 231° |
| 2026-05-04 17:44 | 55.85236 | -4.46876 | 1139 ft | 168 kts | 229° |
| 2026-05-04 17:44 | 55.84416 | -4.48444 | 1794 ft | 177 kts | 232° |
| 2026-05-04 17:45 | 55.83579 | -4.50111 | 2472 ft | 181 kts | 233° |
| 2026-05-04 17:45 | 55.82739 | -4.51792 | 3164 ft | 185 kts | 232° |
| 2026-05-04 17:45 | 55.81831 | -4.53470 | 3742 ft | 192 kts | 229° |
| 2026-05-04 17:45 | 55.80843 | -4.55106 | 4287 ft | 197 kts | 227° |
| 2026-05-04 17:46 | 55.79810 | -4.56789 | 4713 ft | 205 kts | 227° |
| 2026-05-04 17:46 | 55.78732 | -4.58558 | 5040 ft | 218 kts | 227° |
| 2026-05-04 17:46 | 55.77629 | -4.60406 | 5598 ft | 220 kts | 227° |
| 2026-05-04 17:46 | 55.76480 | -4.62346 | 5980 ft | 235 kts | 227° |
| 2026-05-04 17:47 | 55.75270 | -4.64476 | 6223 ft | 257 kts | 229° |
| 2026-05-04 17:47 | 55.74007 | -4.66736 | 6735 ft | 265 kts | 228° |
| 2026-05-04 17:47 | 55.72696 | -4.69069 | 7363 ft | 268 kts | 228° |
| 2026-05-04 17:47 | 55.71333 | -4.71425 | 8070 ft | 271 kts | 227° |
| 2026-05-04 17:48 | 55.69974 | -4.73697 | 8737 ft | 274 kts | 223° |
| 2026-05-04 17:48 | 55.68284 | -4.75345 | 9351 ft | 284 kts | 200° |
| 2026-05-04 17:48 | 55.66964 | -4.75820 | 9810 ft | 289 kts | 188° |
| 2026-05-04 17:48 | 55.64267 | -4.76005 | 10421 ft | 303 kts | 185° |
| 2026-05-04 17:49 | 55.62089 | -4.76100 | 10574 ft | 323 kts | 185° |
| 2026-05-04 17:49 | 55.59774 | -4.76216 | 10776 ft | 341 kts | 184° |
| 2026-05-04 17:49 | 55.57376 | -4.76367 | 11266 ft | 348 kts | 185° |
| 2026-05-04 17:49 | 55.54947 | -4.76551 | 11901 ft | 351 kts | 185° |
| 2026-05-04 17:50 | 55.52499 | -4.76746 | 12580 ft | 354 kts | 185° |
| 2026-05-04 17:50 | 55.50028 | -4.76943 | 13251 ft | 357 kts | 185° |
| 2026-05-04 17:50 | 55.47526 | -4.77142 | 13913 ft | 361 kts | 185° |
| 2026-05-04 17:50 | 55.45005 | -4.77340 | 14509 ft | 365 kts | 185° |
| 2026-05-04 17:51 | 55.42453 | -4.77539 | 15124 ft | 368 kts | 185° |
| 2026-05-04 17:51 | 55.39881 | -4.77738 | 15762 ft | 372 kts | 185° |
| 2026-05-04 17:51 | 55.37286 | -4.77939 | 16371 ft | 376 kts | 185° |
| 2026-05-04 17:51 | 55.34657 | -4.78143 | 16970 ft | 380 kts | 185° |
| 2026-05-04 17:52 | 55.32020 | -4.78623 | 17561 ft | 381 kts | 195° |
| 2026-05-04 17:52 | 55.29479 | -4.79935 | 18166 ft | 381 kts | 205° |
| 2026-05-04 17:52 | 55.27090 | -4.81957 | 18722 ft | 382 kts | 211° |
| 2026-05-04 17:52 | 55.24734 | -4.84122 | 19283 ft | 384 kts | 211° |
| 2026-05-04 17:53 | 55.22354 | -4.86282 | 19859 ft | 386 kts | 210° |
| 2026-05-04 17:53 | 55.19955 | -4.88414 | 20420 ft | 388 kts | 210° |
| 2026-05-04 17:53 | 55.17535 | -4.90537 | 20969 ft | 390 kts | 210° |
| 2026-05-04 17:53 | 55.15091 | -4.92655 | 21456 ft | 394 kts | 208° |
| 2026-05-04 17:54 | 55.12615 | -4.94793 | 21858 ft | 399 kts | 208° |
| 2026-05-04 17:54 | 55.10120 | -4.96950 | 22398 ft | 401 kts | 208° |
| 2026-05-04 17:54 | 55.07625 | -4.99119 | 22954 ft | 402 kts | 208° |
| 2026-05-04 17:54 | 55.05117 | -5.01307 | 23477 ft | 404 kts | 208° |
| 2026-05-04 17:55 | 55.02595 | -5.03506 | 23931 ft | 407 kts | 208° |
| 2026-05-04 17:55 | 55.00066 | -5.05708 | 24328 ft | 409 kts | 208° |
| 2026-05-04 17:55 | 54.97513 | -5.07926 | 24712 ft | 412 kts | 208° |
| 2026-05-04 17:55 | 54.94941 | -5.10157 | 25096 ft | 414 kts | 208° |
| 2026-05-04 17:56 | 54.92353 | -5.12398 | 25478 ft | 417 kts | 208° |
| 2026-05-04 17:56 | 54.89747 | -5.14641 | 25843 ft | 419 kts | 207° |
| 2026-05-04 17:56 | 54.87016 | -5.16504 | 26114 ft | 427 kts | 197° |
| 2026-05-04 17:56 | 54.84113 | -5.17652 | 26419 ft | 431 kts | 193° |
| 2026-05-04 17:57 | 54.81213 | -5.18663 | 26795 ft | 433 kts | 193° |
| 2026-05-04 17:57 | 54.79275 | -5.19331 | 27043 ft | 434 kts | 193° |
| 2026-05-04 17:57 | 54.76534 | -5.20289 | 27362 ft | 436 kts | 193° |
| 2026-05-04 17:57 | 54.73812 | -5.21256 | 27655 ft | 438 kts | 193° |
| 2026-05-04 17:58 | 54.71022 | -5.22264 | 27959 ft | 440 kts | 194° |
| 2026-05-04 17:58 | 54.69458 | -5.22834 | 28135 ft | 441 kts | 194° |
| 2026-05-04 17:58 | 54.66871 | -5.23780 | 28412 ft | 443 kts | 194° |
| 2026-05-04 17:58 | 54.63963 | -5.24845 | 28714 ft | 445 kts | 194° |
| 2026-05-04 17:59 | 54.60965 | -5.25943 | 28949 ft | 449 kts | 193° |
| 2026-05-04 17:59 | 54.57894 | -5.27063 | 29178 ft | 453 kts | 193° |
| 2026-05-04 17:59 | 54.51675 | -5.29328 | 29953 ft | 453 kts | 193° |
| 2026-05-04 18:00 | 54.48681 | -5.30645 | 30379 ft | 449 kts | 200° |
| 2026-05-04 18:00 | 54.45821 | -5.32746 | 30727 ft | 446 kts | 208° |
| 2026-05-04 18:00 | 54.43048 | -5.35133 | 31066 ft | 445 kts | 208° |
| 2026-05-04 18:00 | 54.40287 | -5.37537 | 31384 ft | 445 kts | 208° |
| 2026-05-04 18:01 | 54.37525 | -5.39929 | 31730 ft | 444 kts | 208° |
| 2026-05-04 18:01 | 54.34758 | -5.42299 | 31971 ft | 446 kts | 207° |
| 2026-05-04 18:01 | 54.31971 | -5.44664 | 32187 ft | 448 kts | 207° |
| 2026-05-04 18:02 | 54.26402 | -5.49346 | 32943 ft | 443 kts | 207° |
| 2026-05-04 18:02 | 54.23635 | -5.51661 | 33301 ft | 442 kts | 207° |
| 2026-05-04 18:02 | 54.20874 | -5.53967 | 33582 ft | 442 kts | 207° |
| 2026-05-04 18:02 | 54.18110 | -5.56273 | 33848 ft | 442 kts | 207° |
| 2026-05-04 18:03 | 54.15348 | -5.58575 | 34102 ft | 442 kts | 207° |
| 2026-05-04 18:03 | 54.12566 | -5.60891 | 34067 ft | 446 kts | 207° |
| 2026-05-04 18:03 | 54.06972 | -5.65535 | 34084 ft | 447 kts | 206° |
| 2026-05-04 18:04 | 54.01380 | -5.70167 | 34078 ft | 447 kts | 206° |
| 2026-05-04 18:05 | 53.93028 | -5.77198 | 34088 ft | 446 kts | 208° |
| 2026-05-04 18:05 | 53.87573 | -5.82202 | 34088 ft | 446 kts | 209° |
| 2026-05-04 18:06 | 53.79390 | -5.89727 | 34072 ft | 446 kts | 208° |
| 2026-05-04 18:06 | 53.73912 | -5.94697 | 34081 ft | 447 kts | 208° |
| 2026-05-04 18:07 | 53.68451 | -5.99621 | 34083 ft | 448 kts | 208° |
| 2026-05-04 18:07 | 53.62939 | -6.04572 | 34072 ft | 450 kts | 208° |
| 2026-05-04 18:08 | 53.57410 | -6.09522 | 34078 ft | 451 kts | 207° |
| 2026-05-04 18:08 | 53.51859 | -6.14476 | 34079 ft | 452 kts | 207° |
| 2026-05-04 18:09 | 53.40721 | -6.24381 | 34072 ft | 455 kts | 207° |
| 2026-05-04 18:10 | 53.35115 | -6.29344 | 34091 ft | 456 kts | 207° |
| 2026-05-04 18:10 | 53.29491 | -6.34306 | 34069 ft | 457 kts | 207° |
| 2026-05-04 18:11 | 53.23979 | -6.39156 | 34083 ft | 457 kts | 207° |
| 2026-05-04 18:11 | 53.18347 | -6.44096 | 34063 ft | 457 kts | 207° |
| 2026-05-04 18:12 | 53.12727 | -6.49011 | 34070 ft | 456 kts | 207° |
| 2026-05-04 18:12 | 53.07117 | -6.53903 | 34084 ft | 455 kts | 207° |
| 2026-05-04 18:13 | 53.01512 | -6.58777 | 34062 ft | 455 kts | 206° |
| 2026-05-04 18:14 | 52.93138 | -6.66029 | 34069 ft | 454 kts | 206° |
| 2026-05-04 18:14 | 52.87534 | -6.70866 | 34080 ft | 454 kts | 206° |
| 2026-05-04 18:15 | 52.76287 | -6.80530 | 34079 ft | 457 kts | 206° |
| 2026-05-04 18:16 | 52.70628 | -6.85370 | 34071 ft | 459 kts | 206° |
| 2026-05-04 18:16 | 52.64941 | -6.90221 | 34072 ft | 461 kts | 206° |
| 2026-05-04 18:17 | 52.56365 | -6.97509 | 34074 ft | 464 kts | 206° |
| 2026-05-04 18:18 | 52.47731 | -7.04814 | 34075 ft | 466 kts | 205° |
| 2026-05-04 18:18 | 52.41950 | -7.09686 | 34075 ft | 468 kts | 205° |
| 2026-05-04 18:19 | 52.33243 | -7.16999 | 34072 ft | 469 kts | 205° |
| 2026-05-04 18:19 | 52.27431 | -7.21862 | 34077 ft | 470 kts | 205° |
| 2026-05-04 18:20 | 52.21676 | -7.26662 | 34085 ft | 470 kts | 205° |
| 2026-05-04 18:20 | 52.15885 | -7.31479 | 34074 ft | 471 kts | 205° |
| 2026-05-04 18:21 | 52.10775 | -7.35717 | 34077 ft | 471 kts | 205° |
| 2026-05-04 18:21 | 52.04959 | -7.40527 | 34094 ft | 471 kts | 205° |
| 2026-05-04 18:22 | 52.00303 | -7.44368 | 34065 ft | 471 kts | 205° |
| 2026-05-04 18:22 | 51.95221 | -7.48550 | 34079 ft | 471 kts | 205° |
| 2026-05-04 18:23 | 51.90592 | -7.52350 | 34081 ft | 472 kts | 205° |
| 2026-05-04 18:23 | 51.86003 | -7.56097 | 34082 ft | 472 kts | 205° |
| 2026-05-04 18:24 | 51.82470 | -7.58993 | 34070 ft | 472 kts | 205° |
| 2026-05-04 18:24 | 51.80037 | -7.61050 | 34035 ft | 474 kts | 207° |
| 2026-05-04 18:25 | 51.77304 | -7.63737 | 33936 ft | 478 kts | 213° |
| 2026-05-04 18:25 | 51.74869 | -7.66739 | 33742 ft | 484 kts | 220° |
| 2026-05-04 18:26 | 51.73745 | -7.68416 | 33638 ft | 486 kts | 226° |
| 2026-05-04 18:26 | 51.72278 | -7.71057 | 33515 ft | 488 kts | 229° |
| 2026-05-04 18:26 | 51.70442 | -7.73917 | 33545 ft | 484 kts | 211° |
| 2026-05-04 18:27 | 51.69118 | -7.75066 | 32869 ft | 484 kts | 195° |
| 2026-05-04 18:27 | 51.67633 | -7.75588 | 30915 ft | 469 kts | 175° |
| 2026-05-04 18:27 | 51.66157 | -7.74962 | 27362 ft | 519 kts | 149° |
| 2026-05-04 18:27 | 51.64529 | -7.73740 | 26105 ft | 555 kts | 152° |
| 2026-05-04 18:28 | 51.62832 | -7.72713 | 26718 ft | 530 kts | 162° |
| 2026-05-04 18:28 | 51.60938 | -7.72261 | 27639 ft | 501 kts | 177° |
| 2026-05-04 18:28 | 51.58763 | -7.72593 | 29388 ft | 465 kts | 183° |
| 2026-05-04 18:28 | 51.55811 | -7.73692 | 30906 ft | 441 kts | 197° |
| 2026-05-04 18:29 | 51.53507 | -7.75341 | 31680 ft | 433 kts | 209° |
| 2026-05-04 18:29 | 51.51190 | -7.78257 | 32177 ft | 430 kts | 225° |
| 2026-05-04 18:29 | 51.49167 | -7.81808 | 32368 ft | 431 kts | 228° |
| 2026-05-04 18:29 | 51.47103 | -7.85304 | 32600 ft | 432 kts | 223° |
| 2026-05-04 18:30 | 51.42344 | -7.91163 | 33055 ft | 432 kts | 210° |
| 2026-05-04 18:30 | 51.39754 | -7.93566 | 33287 ft | 431 kts | 206° |
| 2026-05-04 18:30 | 51.37094 | -7.95787 | 33521 ft | 431 kts | 204° |
| 2026-05-04 18:31 | 51.34403 | -7.97920 | 33718 ft | 433 kts | 204° |
| 2026-05-04 18:31 | 51.31688 | -8.00036 | 33838 ft | 436 kts | 204° |
| 2026-05-04 18:31 | 51.28955 | -8.02167 | 34008 ft | 438 kts | 204° |
| 2026-05-04 18:32 | 51.23426 | -8.06513 | 34065 ft | 449 kts | 204° |
| 2026-05-04 18:32 | 51.17771 | -8.10988 | 34062 ft | 460 kts | 204° |
| 2026-05-04 18:33 | 51.11976 | -8.15572 | 34083 ft | 470 kts | 204° |
| 2026-05-04 18:33 | 51.06053 | -8.20243 | 34081 ft | 480 kts | 204° |
| 2026-05-04 18:34 | 50.99956 | -8.24831 | 34071 ft | 489 kts | 198° |
| 2026-05-04 18:34 | 50.93354 | -8.27404 | 34075 ft | 487 kts | 188° |
| 2026-05-04 18:35 | 50.86804 | -8.29419 | 34061 ft | 474 kts | 188° |
| 2026-05-04 18:35 | 50.80347 | -8.31441 | 34072 ft | 472 kts | 188° |
| 2026-05-04 18:36 | 50.73906 | -8.33512 | 34077 ft | 472 kts | 189° |
| 2026-05-04 18:36 | 50.67470 | -8.35600 | 34073 ft | 472 kts | 189° |
| 2026-05-04 18:37 | 50.61033 | -8.37686 | 34072 ft | 472 kts | 189° |
| 2026-05-04 18:37 | 50.54591 | -8.39766 | 34075 ft | 473 kts | 189° |
| 2026-05-04 18:38 | 50.48136 | -8.41842 | 34078 ft | 474 kts | 189° |
| 2026-05-04 18:38 | 50.41694 | -8.43908 | 34071 ft | 475 kts | 189° |
| 2026-05-04 18:39 | 50.35245 | -8.45971 | 34066 ft | 476 kts | 189° |
| 2026-05-04 18:39 | 50.28735 | -8.48047 | 34064 ft | 478 kts | 189° |
| 2026-05-04 18:40 | 50.22276 | -8.50102 | 34064 ft | 477 kts | 189° |
| 2026-05-04 18:40 | 50.15774 | -8.52166 | 34061 ft | 477 kts | 189° |
| 2026-05-04 18:41 | 50.09288 | -8.54218 | 34072 ft | 475 kts | 189° |
| 2026-05-04 18:41 | 50.02773 | -8.56274 | 34056 ft | 474 kts | 189° |
| 2026-05-04 18:42 | 49.96321 | -8.58304 | 34055 ft | 472 kts | 189° |
| 2026-05-04 18:42 | 49.89963 | -8.60299 | 34054 ft | 470 kts | 189° |
| 2026-05-04 18:43 | 49.83564 | -8.62301 | 34073 ft | 468 kts | 189° |
| 2026-05-04 18:43 | 49.77222 | -8.64280 | 34050 ft | 467 kts | 189° |
| 2026-05-04 18:44 | 49.70870 | -8.66257 | 34051 ft | 467 kts | 189° |
| 2026-05-04 18:44 | 49.64507 | -8.68231 | 34056 ft | 468 kts | 189° |
| 2026-05-04 18:45 | 49.58123 | -8.70207 | 34057 ft | 469 kts | 189° |
| 2026-05-04 18:45 | 49.51750 | -8.72175 | 34051 ft | 470 kts | 189° |
| 2026-05-04 18:46 | 49.45440 | -8.74118 | 34041 ft | 471 kts | 189° |
| 2026-05-04 18:46 | 49.39141 | -8.76052 | 34061 ft | 471 kts | 189° |
| 2026-05-04 18:47 | 49.32717 | -8.78021 | 34044 ft | 472 kts | 189° |
| 2026-05-04 18:47 | 49.26325 | -8.79974 | 34042 ft | 471 kts | 189° |
| 2026-05-04 18:48 | 49.19961 | -8.81913 | 34042 ft | 471 kts | 189° |
| 2026-05-04 18:48 | 49.13678 | -8.83822 | 34044 ft | 470 kts | 189° |
| 2026-05-04 18:49 | 49.07327 | -8.85748 | 34029 ft | 469 kts | 189° |
| 2026-05-04 18:49 | 49.00968 | -8.87670 | 34031 ft | 468 kts | 189° |
| 2026-05-04 18:50 | 48.94627 | -8.89582 | 34044 ft | 467 kts | 190° |
| 2026-05-04 18:50 | 48.88428 | -8.91447 | 34033 ft | 467 kts | 190° |
| 2026-05-04 18:51 | 48.82179 | -8.93322 | 34034 ft | 467 kts | 190° |
| 2026-05-04 18:51 | 48.75926 | -8.95194 | 34028 ft | 467 kts | 190° |
| 2026-05-04 18:52 | 48.69628 | -8.97074 | 34040 ft | 467 kts | 190° |
| 2026-05-04 18:52 | 48.63713 | -8.98836 | 34028 ft | 467 kts | 190° |
| 2026-05-04 18:53 | 48.57676 | -9.00206 | 34016 ft | 465 kts | 179° |
| 2026-05-04 18:53 | 48.51552 | -9.00200 | 34012 ft | 460 kts | 178° |
| 2026-05-04 18:54 | 48.45308 | -9.00078 | 34012 ft | 456 kts | 178° |
| 2026-05-04 18:54 | 48.39081 | -9.00012 | 34027 ft | 455 kts | 178° |
| 2026-05-04 18:55 | 48.32830 | -8.99994 | 34026 ft | 454 kts | 178° |
| 2026-05-04 18:55 | 48.23316 | -8.99996 | 34086 ft | 461 kts | 178° |
| 2026-05-04 18:56 | 48.16874 | -8.99997 | 34368 ft | 465 kts | 179° |
| 2026-05-04 18:56 | 48.13676 | -8.99998 | 34635 ft | 464 kts | 179° |
| 2026-05-04 18:56 | 48.10482 | -8.99999 | 34918 ft | 462 kts | 179° |
| 2026-05-04 18:57 | 48.07286 | -9.00000 | 35150 ft | 462 kts | 179° |
| 2026-05-04 18:57 | 48.04168 | -9.00000 | 35343 ft | 462 kts | 179° |
| 2026-05-04 18:57 | 48.00979 | -9.00000 | 35547 ft | 463 kts | 179° |
| 2026-05-04 18:57 | 47.97790 | -9.00000 | 35774 ft | 462 kts | 179° |
| 2026-05-04 18:58 | 47.94584 | -9.00000 | 35995 ft | 461 kts | 179° |
| 2026-05-04 18:58 | 47.91472 | -9.00000 | 36004 ft | 464 kts | 179° |
| 2026-05-04 18:58 | 47.85005 | -8.99999 | 36017 ft | 463 kts | 179° |
| 2026-05-04 18:59 | 47.78594 | -9.00000 | 36011 ft | 459 kts | 179° |
| 2026-05-04 18:59 | 47.72232 | -9.00000 | 36018 ft | 456 kts | 179° |
| 2026-05-04 19:00 | 47.65923 | -9.00000 | 36027 ft | 454 kts | 179° |
| 2026-05-04 19:00 | 47.59685 | -9.00000 | 36030 ft | 453 kts | 179° |
| 2026-05-04 19:01 | 47.53371 | -8.99999 | 36026 ft | 455 kts | 179° |
| 2026-05-04 19:01 | 47.47027 | -8.99999 | 36029 ft | 457 kts | 179° |
| 2026-05-04 19:02 | 47.40660 | -8.99999 | 36027 ft | 460 kts | 179° |
| 2026-05-04 19:02 | 47.34262 | -8.99999 | 36029 ft | 462 kts | 179° |
| 2026-05-04 19:03 | 47.27821 | -8.99999 | 36025 ft | 464 kts | 179° |
| 2026-05-04 19:03 | 47.21358 | -8.99999 | 36028 ft | 465 kts | 179° |
| 2026-05-04 19:04 | 47.14901 | -8.99999 | 36019 ft | 466 kts | 179° |
| 2026-05-04 19:04 | 47.08430 | -9.00000 | 36021 ft | 465 kts | 179° |
| 2026-05-04 19:05 | 47.01987 | -9.00000 | 36023 ft | 464 kts | 179° |
| 2026-05-04 19:05 | 46.95561 | -9.00000 | 36021 ft | 463 kts | 179° |
| 2026-05-04 19:06 | 46.89161 | -9.00000 | 36019 ft | 461 kts | 179° |
| 2026-05-04 19:06 | 46.82755 | -9.00000 | 36016 ft | 460 kts | 179° |
| 2026-05-04 19:07 | 46.76363 | -9.00000 | 36018 ft | 459 kts | 179° |
| 2026-05-04 19:07 | 46.69999 | -9.00000 | 36022 ft | 459 kts | 179° |
| 2026-05-04 19:08 | 46.63628 | -9.00000 | 36017 ft | 459 kts | 179° |
| 2026-05-04 19:08 | 46.57291 | -9.00000 | 36028 ft | 460 kts | 180° |
| 2026-05-04 19:09 | 46.50912 | -9.00000 | 36016 ft | 460 kts | 180° |
| 2026-05-04 19:09 | 46.44553 | -9.00000 | 36022 ft | 461 kts | 180° |
| 2026-05-04 19:10 | 46.38147 | -9.00000 | 36017 ft | 462 kts | 180° |
| 2026-05-04 19:10 | 46.31746 | -9.00000 | 36024 ft | 463 kts | 180° |
| 2026-05-04 19:11 | 46.25316 | -9.00000 | 36024 ft | 463 kts | 180° |
| 2026-05-04 19:11 | 46.18892 | -9.00000 | 36017 ft | 464 kts | 180° |
| 2026-05-04 19:12 | 46.09249 | -9.00000 | 36021 ft | 464 kts | 180° |
| 2026-05-04 19:13 | 46.02873 | -9.00000 | 36019 ft | 464 kts | 180° |
| 2026-05-04 19:13 | 45.97572 | -8.99999 | 36018 ft | 463 kts | 180° |
| 2026-05-04 19:14 | 45.91151 | -8.99997 | 36020 ft | 463 kts | 180° |
| 2026-05-04 19:14 | 45.84728 | -8.99998 | 36017 ft | 462 kts | 180° |
| 2026-05-04 19:15 | 45.78313 | -8.99998 | 36020 ft | 461 kts | 180° |
| 2026-05-04 19:15 | 45.70828 | -8.99998 | 36017 ft | 460 kts | 180° |
| 2026-05-04 19:16 | 45.65976 | -8.99999 | 36024 ft | 460 kts | 180° |
| 2026-05-04 19:16 | 45.59586 | -8.99999 | 36017 ft | 459 kts | 180° |
| 2026-05-04 19:17 | 45.53197 | -9.00000 | 36012 ft | 459 kts | 180° |
| 2026-05-04 19:17 | 45.46813 | -9.00000 | 36020 ft | 459 kts | 180° |
| 2026-05-04 19:18 | 45.40423 | -9.00000 | 36018 ft | 459 kts | 180° |
| 2026-05-04 19:18 | 45.34023 | -8.99998 | 36027 ft | 460 kts | 180° |
| 2026-05-04 19:19 | 45.27614 | -8.99999 | 36026 ft | 461 kts | 180° |
| 2026-05-04 19:19 | 45.21192 | -9.00000 | 36028 ft | 462 kts | 181° |
| 2026-05-04 19:20 | 45.14761 | -8.99998 | 36020 ft | 462 kts | 181° |
| 2026-05-04 19:20 | 45.08362 | -9.00000 | 36027 ft | 463 kts | 181° |
| 2026-05-04 19:21 | 45.01927 | -9.00000 | 36022 ft | 463 kts | 181° |
| 2026-05-04 19:21 | 44.95489 | -8.99596 | 36032 ft | 463 kts | 175° |
| 2026-05-04 19:22 | 44.89084 | -8.98670 | 36022 ft | 463 kts | 175° |
| 2026-05-04 19:22 | 44.82680 | -8.97716 | 36017 ft | 463 kts | 175° |
| 2026-05-04 19:23 | 44.76278 | -8.96821 | 36027 ft | 462 kts | 175° |
| 2026-05-04 19:23 | 44.69881 | -8.95963 | 36026 ft | 461 kts | 175° |
| 2026-05-04 19:24 | 44.63499 | -8.95117 | 36028 ft | 461 kts | 176° |
| 2026-05-04 19:24 | 44.57112 | -8.94271 | 36032 ft | 460 kts | 176° |
| 2026-05-04 19:25 | 44.50743 | -8.93428 | 36027 ft | 460 kts | 176° |
| 2026-05-04 19:25 | 44.44376 | -8.92587 | 36029 ft | 459 kts | 176° |
| 2026-05-04 19:26 | 44.38057 | -8.91754 | 36030 ft | 459 kts | 176° |
| 2026-05-04 19:26 | 44.31657 | -8.90913 | 36031 ft | 459 kts | 176° |
| 2026-05-04 19:27 | 44.25339 | -8.90083 | 36032 ft | 459 kts | 176° |
| 2026-05-04 19:27 | 44.18988 | -8.89251 | 36042 ft | 459 kts | 176° |
| 2026-05-04 19:28 | 44.12627 | -8.88420 | 36036 ft | 459 kts | 176° |
| 2026-05-04 19:28 | 44.06263 | -8.87589 | 36037 ft | 459 kts | 176° |
| 2026-05-04 19:29 | 43.99902 | -8.86762 | 36044 ft | 459 kts | 176° |
| 2026-05-04 19:29 | 43.93539 | -8.85935 | 36046 ft | 459 kts | 176° |
| 2026-05-04 19:30 | 43.87171 | -8.85110 | 36039 ft | 460 kts | 176° |
| 2026-05-04 19:30 | 43.80800 | -8.84286 | 36050 ft | 460 kts | 176° |
| 2026-05-04 19:31 | 43.74431 | -8.83464 | 36051 ft | 460 kts | 176° |
| 2026-05-04 19:31 | 43.68059 | -8.82644 | 36043 ft | 460 kts | 177° |
| 2026-05-04 19:32 | 43.61682 | -8.81824 | 36053 ft | 460 kts | 177° |
| 2026-05-04 19:32 | 43.55309 | -8.81007 | 36061 ft | 460 kts | 177° |
| 2026-05-04 19:33 | 43.48931 | -8.80191 | 36051 ft | 460 kts | 177° |
| 2026-05-04 19:33 | 43.42558 | -8.79377 | 36062 ft | 460 kts | 177° |
| 2026-05-04 19:34 | 43.36187 | -8.78565 | 36068 ft | 460 kts | 177° |
| 2026-05-04 19:34 | 43.29806 | -8.77754 | 36069 ft | 460 kts | 177° |
| 2026-05-04 19:35 | 43.23427 | -8.76945 | 36073 ft | 460 kts | 178° |
| 2026-05-04 19:35 | 43.17050 | -8.76137 | 36077 ft | 460 kts | 178° |
| 2026-05-04 19:36 | 43.10665 | -8.75331 | 36070 ft | 461 kts | 178° |
| 2026-05-04 19:36 | 43.04284 | -8.74526 | 36077 ft | 461 kts | 178° |
| 2026-05-04 19:37 | 42.97900 | -8.73723 | 36080 ft | 461 kts | 178° |
| 2026-05-04 19:37 | 42.91562 | -8.72927 | 36084 ft | 461 kts | 178° |
| 2026-05-04 19:38 | 42.85182 | -8.72129 | 36081 ft | 460 kts | 178° |
| 2026-05-04 19:38 | 42.78809 | -8.71331 | 36088 ft | 460 kts | 178° |
| 2026-05-04 19:39 | 42.72444 | -8.70536 | 36074 ft | 459 kts | 178° |
| 2026-05-04 19:39 | 42.66092 | -8.69745 | 36064 ft | 458 kts | 179° |
| 2026-05-04 19:40 | 42.59749 | -8.68957 | 36072 ft | 457 kts | 179° |
| 2026-05-04 19:40 | 42.53415 | -8.68172 | 36078 ft | 457 kts | 179° |
| 2026-05-04 19:41 | 42.47086 | -8.67389 | 36074 ft | 456 kts | 179° |
| 2026-05-04 19:41 | 42.40768 | -8.66609 | 36081 ft | 456 kts | 179° |
| 2026-05-04 19:42 | 42.34448 | -8.65829 | 36071 ft | 456 kts | 179° |
| 2026-05-04 19:42 | 42.28139 | -8.65054 | 36061 ft | 455 kts | 179° |
| 2026-05-04 19:43 | 42.21833 | -8.64280 | 36073 ft | 455 kts | 179° |
| 2026-05-04 19:43 | 42.15529 | -8.63507 | 36080 ft | 455 kts | 179° |
| 2026-05-04 19:44 | 42.09225 | -8.62737 | 36084 ft | 455 kts | 179° |
| 2026-05-04 19:44 | 42.02922 | -8.61967 | 36079 ft | 455 kts | 179° |
| 2026-05-04 19:45 | 41.96612 | -8.61199 | 36084 ft | 456 kts | 179° |
| 2026-05-04 19:45 | 41.90287 | -8.60430 | 36082 ft | 457 kts | 179° |
| 2026-05-04 19:46 | 41.83961 | -8.59539 | 36082 ft | 460 kts | 173° |
| 2026-05-04 19:46 | 41.77706 | -8.57515 | 36089 ft | 464 kts | 170° |
| 2026-05-04 19:47 | 41.71464 | -8.55308 | 36087 ft | 464 kts | 170° |
| 2026-05-04 19:47 | 41.65209 | -8.53159 | 36067 ft | 463 kts | 171° |
| 2026-05-04 19:48 | 41.58959 | -8.51068 | 36093 ft | 462 kts | 171° |
| 2026-05-04 19:48 | 41.52722 | -8.49000 | 36097 ft | 462 kts | 171° |
| 2026-05-04 19:49 | 41.46482 | -8.46935 | 36103 ft | 462 kts | 171° |
| 2026-05-04 19:49 | 41.40250 | -8.44874 | 36085 ft | 461 kts | 172° |
| 2026-05-04 19:50 | 41.34030 | -8.42820 | 36086 ft | 460 kts | 172° |
| 2026-05-04 19:50 | 41.27815 | -8.40772 | 36101 ft | 460 kts | 172° |
| 2026-05-04 19:51 | 41.21609 | -8.38730 | 36094 ft | 459 kts | 172° |
| 2026-05-04 19:51 | 41.15400 | -8.36692 | 36092 ft | 459 kts | 173° |
| 2026-05-04 19:52 | 41.09199 | -8.34660 | 36111 ft | 459 kts | 173° |
| 2026-05-04 19:52 | 41.02988 | -8.32622 | 36077 ft | 460 kts | 172° |
| 2026-05-04 19:53 | 40.96858 | -8.30010 | 36096 ft | 465 kts | 167° |
| 2026-05-04 19:53 | 40.90822 | -8.27183 | 36101 ft | 464 kts | 167° |
| 2026-05-04 19:54 | 40.84727 | -8.24364 | 36100 ft | 464 kts | 168° |
| 2026-05-04 19:54 | 40.78627 | -8.21594 | 36102 ft | 464 kts | 168° |
| 2026-05-04 19:55 | 40.72515 | -8.18841 | 36100 ft | 464 kts | 168° |
| 2026-05-04 19:55 | 40.66407 | -8.16093 | 36100 ft | 464 kts | 168° |
| 2026-05-04 19:56 | 40.60304 | -8.13350 | 36067 ft | 463 kts | 169° |
| 2026-05-04 19:56 | 40.54210 | -8.10616 | 36095 ft | 462 kts | 169° |
| 2026-05-04 19:57 | 40.48121 | -8.07889 | 36105 ft | 462 kts | 169° |
| 2026-05-04 19:57 | 40.42029 | -8.05197 | 36104 ft | 461 kts | 171° |
| 2026-05-04 19:58 | 40.35888 | -8.02904 | 36101 ft | 458 kts | 173° |
| 2026-05-04 19:58 | 40.29733 | -8.00765 | 36102 ft | 458 kts | 173° |
| 2026-05-04 19:59 | 40.23578 | -7.98605 | 36101 ft | 458 kts | 173° |
| 2026-05-04 19:59 | 40.17421 | -7.96413 | 36079 ft | 459 kts | 173° |
| 2026-05-04 20:00 | 40.11268 | -7.94211 | 36099 ft | 458 kts | 173° |
| 2026-05-04 20:00 | 40.05437 | -7.92127 | 36096 ft | 459 kts | 173° |
| 2026-05-04 20:01 | 40.00306 | -7.90298 | 36094 ft | 460 kts | 173° |
| 2026-05-04 20:01 | 39.94137 | -7.88101 | 36073 ft | 459 kts | 173° |
| 2026-05-04 20:02 | 39.87985 | -7.85914 | 36077 ft | 458 kts | 173° |
| 2026-05-04 20:02 | 39.81851 | -7.83740 | 36083 ft | 457 kts | 173° |
| 2026-05-04 20:03 | 39.75711 | -7.81568 | 36037 ft | 458 kts | 174° |
| 2026-05-04 20:03 | 39.69570 | -7.79398 | 36067 ft | 457 kts | 174° |
| 2026-05-04 20:04 | 39.63439 | -7.77237 | 36088 ft | 457 kts | 174° |
| 2026-05-04 20:04 | 39.57515 | -7.75154 | 36081 ft | 458 kts | 174° |
| 2026-05-04 20:05 | 39.51366 | -7.72993 | 36071 ft | 457 kts | 174° |
| 2026-05-04 20:05 | 39.45261 | -7.70852 | 36071 ft | 458 kts | 174° |
| 2026-05-04 20:06 | 39.39075 | -7.68687 | 36082 ft | 458 kts | 174° |
| 2026-05-04 20:06 | 39.32949 | -7.66547 | 36078 ft | 458 kts | 174° |
| 2026-05-04 20:07 | 39.26801 | -7.64402 | 36074 ft | 458 kts | 174° |
| 2026-05-04 20:07 | 39.20653 | -7.62261 | 36081 ft | 457 kts | 174° |
| 2026-05-04 20:08 | 39.14510 | -7.60127 | 36091 ft | 457 kts | 174° |
| 2026-05-04 20:08 | 39.08489 | -7.58039 | 36053 ft | 457 kts | 174° |
| 2026-05-04 20:09 | 39.02352 | -7.55913 | 36073 ft | 456 kts | 174° |
| 2026-05-04 20:09 | 38.96228 | -7.53797 | 36076 ft | 455 kts | 174° |
| 2026-05-04 20:10 | 38.90116 | -7.51687 | 36073 ft | 455 kts | 174° |
| 2026-05-04 20:10 | 38.84007 | -7.49583 | 36072 ft | 453 kts | 174° |
| 2026-05-04 20:11 | 38.77924 | -7.47492 | 36072 ft | 452 kts | 174° |
| 2026-05-04 20:11 | 38.71844 | -7.45406 | 36074 ft | 452 kts | 174° |
| 2026-05-04 20:12 | 38.65767 | -7.43325 | 36066 ft | 452 kts | 174° |
| 2026-05-04 20:12 | 38.59792 | -7.41281 | 36062 ft | 451 kts | 174° |
| 2026-05-04 20:13 | 38.53732 | -7.39212 | 36071 ft | 451 kts | 174° |
| 2026-05-04 20:13 | 38.47717 | -7.37163 | 36070 ft | 450 kts | 174° |
| 2026-05-04 20:14 | 38.41662 | -7.35103 | 36021 ft | 450 kts | 173° |
| 2026-05-04 20:14 | 38.35620 | -7.33050 | 36062 ft | 449 kts | 173° |
| 2026-05-04 20:15 | 38.29587 | -7.31005 | 36074 ft | 448 kts | 173° |
| 2026-05-04 20:15 | 38.23555 | -7.28963 | 36064 ft | 448 kts | 173° |
| 2026-05-04 20:16 | 38.17525 | -7.26926 | 36062 ft | 448 kts | 173° |
| 2026-05-04 20:16 | 38.11503 | -7.24894 | 36067 ft | 448 kts | 173° |
| 2026-05-04 20:16 | 38.08512 | -7.23720 | 36038 ft | 458 kts | 162° |
| 2026-05-04 20:17 | 38.05818 | -7.21432 | 36095 ft | 476 kts | 142° |
| 2026-05-04 20:17 | 38.03738 | -7.18087 | 36061 ft | 492 kts | 123° |
| 2026-05-04 20:17 | 38.02507 | -7.14012 | 36058 ft | 500 kts | 103° |
| 2026-05-04 20:18 | 38.00493 | -7.05663 | 36073 ft | 491 kts | 122° |
| 2026-05-04 20:18 | 37.97159 | -6.98142 | 36037 ft | 490 kts | 125° |
| 2026-05-04 20:19 | 37.94187 | -6.91607 | 36043 ft | 491 kts | 124° |
| 2026-05-04 20:19 | 37.90834 | -6.84066 | 36046 ft | 492 kts | 124° |
| 2026-05-04 20:20 | 37.87515 | -6.76494 | 36005 ft | 489 kts | 124° |
| 2026-05-04 20:20 | 37.85891 | -6.72779 | 35659 ft | 485 kts | 124° |
| 2026-05-04 20:20 | 37.84270 | -6.69076 | 35348 ft | 479 kts | 124° |
| 2026-05-04 20:20 | 37.82634 | -6.65349 | 34952 ft | 476 kts | 124° |
| 2026-05-04 20:21 | 37.81030 | -6.61706 | 34595 ft | 473 kts | 124° |
| 2026-05-04 20:21 | 37.79431 | -6.58082 | 34217 ft | 471 kts | 124° |
| 2026-05-04 20:21 | 37.76276 | -6.50939 | 33371 ft | 466 kts | 124° |
| 2026-05-04 20:22 | 37.74702 | -6.47383 | 32999 ft | 462 kts | 124° |
| 2026-05-04 20:22 | 37.73117 | -6.43802 | 32612 ft | 459 kts | 124° |
| 2026-05-04 20:22 | 37.71584 | -6.40344 | 32250 ft | 457 kts | 124° |
| 2026-05-04 20:22 | 37.70035 | -6.36854 | 31873 ft | 454 kts | 124° |
| 2026-05-04 20:23 | 37.68498 | -6.33394 | 31520 ft | 451 kts | 124° |
| 2026-05-04 20:23 | 37.66967 | -6.29951 | 31157 ft | 449 kts | 124° |
| 2026-05-04 20:23 | 37.65437 | -6.26521 | 30775 ft | 447 kts | 124° |
| 2026-05-04 20:23 | 37.63911 | -6.23112 | 30416 ft | 445 kts | 124° |
| 2026-05-04 20:24 | 37.62391 | -6.19724 | 30050 ft | 443 kts | 124° |
| 2026-05-04 20:24 | 37.60875 | -6.16348 | 29635 ft | 441 kts | 124° |
| 2026-05-04 20:24 | 37.59370 | -6.12996 | 29238 ft | 438 kts | 124° |
| 2026-05-04 20:24 | 37.57874 | -6.09668 | 28853 ft | 435 kts | 124° |
| 2026-05-04 20:25 | 37.56385 | -6.06358 | 28479 ft | 432 kts | 124° |
| 2026-05-04 20:25 | 37.54911 | -6.03083 | 28099 ft | 428 kts | 124° |
| 2026-05-04 20:25 | 37.53449 | -5.99838 | 27767 ft | 424 kts | 124° |
| 2026-05-04 20:25 | 37.51995 | -5.96616 | 27391 ft | 422 kts | 124° |
| 2026-05-04 20:26 | 37.50549 | -5.93414 | 27039 ft | 419 kts | 124° |
| 2026-05-04 20:26 | 37.49111 | -5.90235 | 26682 ft | 417 kts | 124° |
| 2026-05-04 20:26 | 37.47680 | -5.87073 | 26324 ft | 414 kts | 124° |
| 2026-05-04 20:26 | 37.46258 | -5.83931 | 25973 ft | 412 kts | 124° |
| 2026-05-04 20:27 | 37.44840 | -5.80803 | 25617 ft | 410 kts | 124° |
| 2026-05-04 20:27 | 37.43426 | -5.77701 | 25265 ft | 408 kts | 126° |
| 2026-05-04 20:27 | 37.41671 | -5.74989 | 24873 ft | 394 kts | 147° |
| 2026-05-04 20:27 | 37.39524 | -5.72891 | 24568 ft | 388 kts | 149° |
| 2026-05-04 20:28 | 37.37374 | -5.70839 | 24198 ft | 388 kts | 149° |
| 2026-05-04 20:28 | 37.35229 | -5.68787 | 23848 ft | 386 kts | 149° |
| 2026-05-04 20:28 | 37.33096 | -5.66736 | 23450 ft | 386 kts | 148° |
| 2026-05-04 20:28 | 37.30978 | -5.64688 | 23069 ft | 383 kts | 148° |
| 2026-05-04 20:29 | 37.28873 | -5.62643 | 22716 ft | 381 kts | 148° |
| 2026-05-04 20:29 | 37.26799 | -5.60624 | 22369 ft | 378 kts | 148° |
| 2026-05-04 20:29 | 37.24726 | -5.58606 | 22031 ft | 375 kts | 148° |
| 2026-05-04 20:29 | 37.22672 | -5.56606 | 21690 ft | 373 kts | 148° |
| 2026-05-04 20:30 | 37.20630 | -5.54618 | 21347 ft | 370 kts | 148° |
| 2026-05-04 20:30 | 37.18609 | -5.52653 | 21008 ft | 368 kts | 148° |
| 2026-05-04 20:30 | 37.16584 | -5.50686 | 20682 ft | 365 kts | 148° |
| 2026-05-04 20:30 | 37.14582 | -5.48742 | 20351 ft | 363 kts | 148° |
| 2026-05-04 20:31 | 37.12589 | -5.46809 | 20022 ft | 361 kts | 148° |
| 2026-05-04 20:31 | 37.10606 | -5.44887 | 19672 ft | 360 kts | 147° |
| 2026-05-04 20:31 | 37.08634 | -5.42976 | 19349 ft | 358 kts | 147° |
| 2026-05-04 20:31 | 37.06670 | -5.41073 | 19021 ft | 355 kts | 147° |
| 2026-05-04 20:32 | 37.04721 | -5.39188 | 18705 ft | 353 kts | 147° |
| 2026-05-04 20:32 | 37.02780 | -5.37311 | 18391 ft | 352 kts | 147° |
| 2026-05-04 20:32 | 37.00844 | -5.35440 | 18026 ft | 351 kts | 147° |
| 2026-05-04 20:32 | 36.98919 | -5.33580 | 17678 ft | 348 kts | 147° |
| 2026-05-04 20:33 | 36.97015 | -5.31742 | 17341 ft | 346 kts | 147° |
| 2026-05-04 20:33 | 36.95143 | -5.29936 | 17008 ft | 344 kts | 147° |
| 2026-05-04 20:33 | 36.93255 | -5.28116 | 16692 ft | 341 kts | 147° |
| 2026-05-04 20:33 | 36.91382 | -5.26311 | 16378 ft | 339 kts | 147° |
| 2026-05-04 20:34 | 36.89496 | -5.24495 | 16058 ft | 337 kts | 147° |
| 2026-05-04 20:34 | 36.87666 | -5.22734 | 15729 ft | 335 kts | 147° |
| 2026-05-04 20:34 | 36.85822 | -5.20961 | 15424 ft | 334 kts | 147° |
| 2026-05-04 20:34 | 36.84214 | -5.18860 | 15081 ft | 341 kts | 123° |
| 2026-05-04 20:35 | 36.83397 | -5.16089 | 14896 ft | 341 kts | 99° |
| 2026-05-04 20:35 | 36.83332 | -5.13156 | 14721 ft | 336 kts | 89° |
| 2026-05-04 20:35 | 36.83416 | -5.10257 | 14547 ft | 334 kts | 89° |
| 2026-05-04 20:35 | 36.83491 | -5.07364 | 14362 ft | 333 kts | 89° |
| 2026-05-04 20:36 | 36.83548 | -5.04473 | 14180 ft | 333 kts | 89° |
| 2026-05-04 20:36 | 36.83542 | -5.01591 | 13972 ft | 332 kts | 98° |
| 2026-05-04 20:36 | 36.83045 | -4.98784 | 13811 ft | 330 kts | 108° |
| 2026-05-04 20:36 | 36.82415 | -4.96024 | 13612 ft | 331 kts | 108° |
| 2026-05-04 20:37 | 36.81806 | -4.93248 | 13407 ft | 332 kts | 108° |
| 2026-05-04 20:37 | 36.81218 | -4.90467 | 13220 ft | 331 kts | 107° |
| 2026-05-04 20:37 | 36.80636 | -4.87698 | 13026 ft | 329 kts | 109° |
| 2026-05-04 20:37 | 36.79621 | -4.85194 | 12827 ft | 321 kts | 134° |
| 2026-05-04 20:38 | 36.78082 | -4.83228 | 12680 ft | 315 kts | 142° |
| 2026-05-04 20:38 | 36.76454 | -4.81398 | 12503 ft | 315 kts | 143° |
| 2026-05-04 20:38 | 36.74816 | -4.79592 | 12330 ft | 314 kts | 143° |
| 2026-05-04 20:38 | 36.73186 | -4.77784 | 12160 ft | 314 kts | 143° |
| 2026-05-04 20:39 | 36.71560 | -4.75965 | 11988 ft | 313 kts | 143° |
| 2026-05-04 20:39 | 36.69946 | -4.74147 | 11815 ft | 313 kts | 142° |
| 2026-05-04 20:39 | 36.68335 | -4.72325 | 11631 ft | 313 kts | 142° |
| 2026-05-04 20:39 | 36.66731 | -4.70507 | 11463 ft | 310 kts | 142° |
| 2026-05-04 20:40 | 36.65152 | -4.68717 | 11260 ft | 304 kts | 142° |
| 2026-05-04 20:40 | 36.63599 | -4.66957 | 11100 ft | 299 kts | 142° |
| 2026-05-04 20:40 | 36.62080 | -4.65239 | 10933 ft | 293 kts | 143° |
| 2026-05-04 20:40 | 36.60669 | -4.63643 | 10783 ft | 287 kts | 143° |
| 2026-05-04 20:41 | 36.59256 | -4.62047 | 10642 ft | 283 kts | 143° |
| 2026-05-04 20:41 | 36.57809 | -4.60415 | 10495 ft | 281 kts | 143° |
| 2026-05-04 20:41 | 36.56783 | -4.59259 | 10399 ft | 281 kts | 143° |
| 2026-05-04 20:41 | 36.55524 | -4.57839 | 10273 ft | 279 kts | 143° |
| 2026-05-04 20:42 | 36.54107 | -4.56221 | 10100 ft | 276 kts | 139° |
| 2026-05-04 20:42 | 36.53127 | -4.54292 | 9944 ft | 281 kts | 113° |
| 2026-05-04 20:42 | 36.52547 | -4.52139 | 9832 ft | 280 kts | 111° |
| 2026-05-04 20:42 | 36.51996 | -4.50079 | 9685 ft | 281 kts | 111° |
| 2026-05-04 20:43 | 36.51438 | -4.48021 | 9543 ft | 281 kts | 111° |
| 2026-05-04 20:43 | 36.50870 | -4.45946 | 9401 ft | 280 kts | 112° |
| 2026-05-04 20:43 | 36.50303 | -4.43894 | 9252 ft | 279 kts | 112° |
| 2026-05-04 20:43 | 36.49715 | -4.41770 | 9105 ft | 277 kts | 112° |
| 2026-05-04 20:44 | 36.49061 | -4.39755 | 8931 ft | 270 kts | 127° |
| 2026-05-04 20:44 | 36.47996 | -4.38167 | 8808 ft | 259 kts | 138° |
| 2026-05-04 20:44 | 36.46802 | -4.36565 | 8656 ft | 255 kts | 137° |
| 2026-05-04 20:44 | 36.45625 | -4.34950 | 8499 ft | 253 kts | 136° |
| 2026-05-04 20:45 | 36.44461 | -4.33344 | 8350 ft | 253 kts | 136° |
| 2026-05-04 20:45 | 36.43288 | -4.31719 | 8198 ft | 252 kts | 136° |
| 2026-05-04 20:45 | 36.42303 | -4.29911 | 7995 ft | 258 kts | 112° |
| 2026-05-04 20:45 | 36.42109 | -4.27708 | 7790 ft | 261 kts | 81° |
| 2026-05-04 20:46 | 36.42790 | -4.25604 | 7384 ft | 268 kts | 51° |
| 2026-05-04 20:46 | 36.44201 | -4.24138 | 6922 ft | 266 kts | 21° |
| 2026-05-04 20:46 | 36.45980 | -4.23711 | 6465 ft | 261 kts | 352° |
| 2026-05-04 20:46 | 36.47668 | -4.24361 | 6050 ft | 251 kts | 327° |
| 2026-05-04 20:47 | 36.49051 | -4.25676 | 5505 ft | 253 kts | 315° |
| 2026-05-04 20:47 | 36.50344 | -4.27183 | 4972 ft | 256 kts | 316° |
| 2026-05-04 20:47 | 36.51638 | -4.28702 | 4532 ft | 255 kts | 317° |
| 2026-05-04 20:47 | 36.52927 | -4.30195 | 4148 ft | 252 kts | 317° |
| 2026-05-04 20:48 | 36.53771 | -4.31165 | 3916 ft | 247 kts | 317° |
| 2026-05-04 20:48 | 36.54995 | -4.32586 | 3630 ft | 234 kts | 317° |
| 2026-05-04 20:48 | 36.56125 | -4.33964 | 3272 ft | 221 kts | 315° |
| 2026-05-04 20:48 | 36.57138 | -4.35340 | 2818 ft | 209 kts | 313° |
| 2026-05-04 20:49 | 36.58059 | -4.36639 | 2519 ft | 191 kts | 313° |
| 2026-05-04 20:49 | 36.58897 | -4.37822 | 2280 ft | 174 kts | 313° |
| 2026-05-04 20:49 | 36.59664 | -4.38901 | 2032 ft | 160 kts | 312° |
| 2026-05-04 20:49 | 36.60375 | -4.39901 | 1834 ft | 149 kts | 311° |
| 2026-05-04 20:50 | 36.61053 | -4.40855 | 1657 ft | 143 kts | 311° |
| 2026-05-04 20:50 | 36.61689 | -4.41749 | 1450 ft | 135 kts | 309° |
| 2026-05-04 20:50 | 36.62300 | -4.42612 | 1282 ft | 133 kts | 309° |
| 2026-05-04 20:50 | 36.62927 | -4.43506 | 1125 ft | 140 kts | 309° |
| 2026-05-04 20:51 | 36.63575 | -4.44439 | 954 ft | 144 kts | 309° |
| 2026-05-04 20:51 | 36.64243 | -4.45354 | 754 ft | 142 kts | 308° |
| 2026-05-04 20:51 | 36.64895 | -4.46271 | 563 ft | 143 kts | 308° |
| 2026-05-04 20:51 | 36.65558 | -4.47208 | 358 ft | 145 kts | 308° |
| 2026-05-04 20:52 | 36.66229 | -4.48150 | 180 ft | 146 kts | 309° |
| 2026-05-04 20:52 | 36.66905 | -4.49089 | 46 ft | 139 kts | 310° |
| 2026-05-04 20:52 | 36.67463 | -4.49875 | 50 ft | 100 kts | 312° |
| 2026-05-04 20:52 | 36.67814 | -4.50368 | 54 ft | 57 kts | 312° |
| 2026-05-04 20:53 | 36.68069 | -4.50724 | 51 ft | 53 kts | 311° |
| 2026-05-04 20:53 | 36.68295 | -4.51042 | 59 ft | 45 kts | 312° |
| 2026-05-04 20:53 | 36.68415 | -4.51138 | 56 ft | 9 kts | 11° |
| 2026-05-04 20:53 | 36.68485 | -4.51113 | 55 ft | 12 kts | 31° |
| 2026-05-04 20:54 | 36.68492 | -4.51019 | 50 ft | 13 kts | 127° |
| 2026-05-04 20:54 | 36.68430 | -4.50929 | 49 ft | 14 kts | 132° |
| 2026-05-04 20:54 | 36.68364 | -4.50839 | 48 ft | 14 kts | 132° |
| 2026-05-04 20:54 | 36.68301 | -4.50750 | 44 ft | 14 kts | 131° |
| 2026-05-04 20:55 | 36.68233 | -4.50654 | 44 ft | 15 kts | 131° |
| 2026-05-04 20:55 | 36.68167 | -4.50562 | 43 ft | 14 kts | 131° |
| 2026-05-04 20:55 | 36.68110 | -4.50482 | 42 ft | 14 kts | 131° |
| 2026-05-04 20:55 | 36.68050 | -4.50396 | 43 ft | 13 kts | 133° |
| 2026-05-04 20:56 | 36.67990 | -4.50314 | 43 ft | 13 kts | 131° |
| 2026-05-04 20:56 | 36.67933 | -4.50233 | 44 ft | 12 kts | 131° |
| 2026-05-04 20:56 | 36.67876 | -4.50154 | 43 ft | 12 kts | 131° |
| 2026-05-04 20:56 | 36.67813 | -4.50066 | 43 ft | 14 kts | 131° |
| 2026-05-04 20:57 | 36.67748 | -4.49975 | 43 ft | 14 kts | 131° |
| 2026-05-04 20:57 | 36.67687 | -4.49888 | 42 ft | 13 kts | 131° |
| 2026-05-04 20:57 | 36.67625 | -4.49801 | 42 ft | 14 kts | 131° |
| 2026-05-04 20:57 | 36.67561 | -4.49713 | 42 ft | 13 kts | 132° |
| 2026-05-04 20:58 | 36.67495 | -4.49620 | 41 ft | 17 kts | 131° |
| 2026-05-04 20:58 | 36.67403 | -4.49490 | 42 ft | 21 kts | 131° |
| 2026-05-04 20:58 | 36.67307 | -4.49358 | 41 ft | 20 kts | 132° |
| 2026-05-04 20:58 | 36.67216 | -4.49229 | 41 ft | 20 kts | 131° |
| 2026-05-04 20:59 | 36.67140 | -4.49122 | 40 ft | 12 kts | 128° |
| 2026-05-04 20:59 | 36.67156 | -4.49041 | 41 ft | 10 kts | 53° |
| 2026-05-04 20:59 | 36.67184 | -4.48973 | 39 ft | 7 kts | 51° |
| 2026-05-04 20:59 | 36.67218 | -4.48940 | 41 ft | 6 kts | 25° |
| 2026-05-04 21:00 | 36.67256 | -4.48955 | 41 ft | 6 kts | 332° |
| 2026-05-04 21:00 | 36.67290 | -4.48978 | 41 ft | 1 kts | 331° |
| 2026-05-04 21:00 | 36.67295 | -4.48981 | 41 ft | 0 kts | 331° |